sensor_id;sensor_type;location;lat;lon;timestamp;temperature;humidity
75262;DHT22;63859;51.064;4.580;2023-04-15T00:00:03;10.10;99.90
75262;DHT22;63859;51.064;4.580;2023-04-15T00:02:29;10.00;99.90
75262;DHT22;63859;51.064;4.580;2023-04-15T00:04:55;10.10;99.90
75262;DHT22;63859;51.064;4.580;2023-04-15T00:07:21;10.10;99.90
75262;DHT22;63859;51.064;4.580;2023-04-15T00:09:46;10.10;99.90
75262;DHT22;63859;51.064;4.580;2023-04-15T00:12:12;10.10;99.90
75262;DHT22;63859;51.064;4.580;2023-04-15T00:14:38;10.10;99.90
75262;DHT22;63859;51.064;4.580;2023-04-15T00:17:03;10.30;99.90
75262;DHT22;63859;51.064;4.580;2023-04-15T00:19:30;10.10;99.90
75262;DHT22;63859;51.064;4.580;2023-04-15T00:21:56;10.10;99.90
75262;DHT22;63859;51.064;4.580;2023-04-15T00:24:22;10.20;99.90
75262;DHT22;63859;51.064;4.580;2023-04-15T00:26:47;10.20;99.90
75262;DHT22;63859;51.064;4.580;2023-04-15T00:29:13;10.10;99.90
75262;DHT22;63859;51.064;4.580;2023-04-15T00:31:39;10.10;99.90
75262;DHT22;63859;51.064;4.580;2023-04-15T00:34:06;10.10;99.90
75262;DHT22;63859;51.064;4.580;2023-04-15T00:36:32;10.10;99.90
75262;DHT22;63859;51.064;4.580;2023-04-15T00:38:58;10.10;99.90
75262;DHT22;63859;51.064;4.580;2023-04-15T00:41:24;10.10;99.90
75262;DHT22;63859;51.064;4.580;2023-04-15T00:43:49;10.10;99.90
75262;DHT22;63859;51.064;4.580;2023-04-15T00:46:16;10.10;99.90
75262;DHT22;63859;51.064;4.580;2023-04-15T00:48:44;10.10;99.90
75262;DHT22;63859;51.064;4.580;2023-04-15T00:51:10;10.00;99.90
75262;DHT22;63859;51.064;4.580;2023-04-15T00:53:35;10.10;99.90
75262;DHT22;63859;51.064;4.580;2023-04-15T00:56:01;10.10;99.90
75262;DHT22;63859;51.064;4.580;2023-04-15T00:58:26;10.10;99.90
75262;DHT22;63859;51.064;4.580;2023-04-15T01:00:54;10.00;99.90
75262;DHT22;63859;51.064;4.580;2023-04-15T01:03:20;10.10;99.90
75262;DHT22;63859;51.064;4.580;2023-04-15T01:05:46;10.10;99.90
75262;DHT22;63859;51.064;4.580;2023-04-15T01:08:11;10.10;99.90
75262;DHT22;63859;51.064;4.580;2023-04-15T01:10:37;10.10;99.90
75262;DHT22;63859;51.064;4.580;2023-04-15T01:13:03;10.00;99.90
75262;DHT22;63859;51.064;4.580;2023-04-15T01:15:30;10.00;99.90
75262;DHT22;63859;51.064;4.580;2023-04-15T01:18:00;10.20;99.90
75262;DHT22;63859;51.064;4.580;2023-04-15T01:20:27;10.00;99.90
75262;DHT22;63859;51.064;4.580;2023-04-15T01:22:54;10.10;99.90
75262;DHT22;63859;51.064;4.580;2023-04-15T01:25:30;10.00;99.90
75262;DHT22;63859;51.064;4.580;2023-04-15T01:27:57;10.00;99.90
75262;DHT22;63859;51.064;4.580;2023-04-15T01:30:23;10.00;99.90
75262;DHT22;63859;51.064;4.580;2023-04-15T01:32:50;10.00;99.90
75262;DHT22;63859;51.064;4.580;2023-04-15T01:35:16;9.90;99.90
75262;DHT22;63859;51.064;4.580;2023-04-15T01:37:41;10.00;99.90
75262;DHT22;63859;51.064;4.580;2023-04-15T01:40:07;10.00;99.90
75262;DHT22;63859;51.064;4.580;2023-04-15T01:42:35;10.00;99.90
75262;DHT22;63859;51.064;4.580;2023-04-15T01:45:01;9.90;99.90
75262;DHT22;63859;51.064;4.580;2023-04-15T01:47:27;9.90;99.90
75262;DHT22;63859;51.064;4.580;2023-04-15T01:49:52;9.90;99.90
75262;DHT22;63859;51.064;4.580;2023-04-15T01:52:18;9.80;99.90
75262;DHT22;63859;51.064;4.580;2023-04-15T01:54:44;9.90;99.90
75262;DHT22;63859;51.064;4.580;2023-04-15T01:57:10;9.90;99.90
75262;DHT22;63859;51.064;4.580;2023-04-15T01:59:35;9.90;99.90
75262;DHT22;63859;51.064;4.580;2023-04-15T02:02:01;9.80;99.90
75262;DHT22;63859;51.064;4.580;2023-04-15T02:04:27;9.80;99.90
75262;DHT22;63859;51.064;4.580;2023-04-15T02:06:53;9.70;99.90
75262;DHT22;63859;51.064;4.580;2023-04-15T02:09:19;9.70;99.90
75262;DHT22;63859;51.064;4.580;2023-04-15T02:11:44;9.70;99.90
75262;DHT22;63859;51.064;4.580;2023-04-15T02:14:10;9.70;99.90
75262;DHT22;63859;51.064;4.580;2023-04-15T02:16:36;9.70;99.90
75262;DHT22;63859;51.064;4.580;2023-04-15T02:19:01;9.70;99.90
75262;DHT22;63859;51.064;4.580;2023-04-15T02:21:28;9.70;99.90
75262;DHT22;63859;51.064;4.580;2023-04-15T02:23:54;9.60;99.90
75262;DHT22;63859;51.064;4.580;2023-04-15T02:26:20;9.70;99.90
75262;DHT22;63859;51.064;4.580;2023-04-15T02:28:47;9.60;99.90
75262;DHT22;63859;51.064;4.580;2023-04-15T02:31:13;9.60;99.90
75262;DHT22;63859;51.064;4.580;2023-04-15T02:33:39;9.40;99.90
75262;DHT22;63859;51.064;4.580;2023-04-15T02:36:04;9.60;99.90
75262;DHT22;63859;51.064;4.580;2023-04-15T02:38:31;9.50;99.90
75262;DHT22;63859;51.064;4.580;2023-04-15T02:40:56;9.40;99.90
75262;DHT22;63859;51.064;4.580;2023-04-15T02:43:22;9.50;99.90
75262;DHT22;63859;51.064;4.580;2023-04-15T02:45:48;9.30;99.90
75262;DHT22;63859;51.064;4.580;2023-04-15T02:48:14;9.40;99.90
75262;DHT22;63859;51.064;4.580;2023-04-15T02:50:42;9.30;99.90
75262;DHT22;63859;51.064;4.580;2023-04-15T02:53:07;9.30;99.90
75262;DHT22;63859;51.064;4.580;2023-04-15T02:55:33;9.30;99.90
75262;DHT22;63859;51.064;4.580;2023-04-15T02:57:59;9.30;99.90
75262;DHT22;63859;51.064;4.580;2023-04-15T03:00:26;9.30;99.90
75262;DHT22;63859;51.064;4.580;2023-04-15T03:02:57;9.30;99.90
75262;DHT22;63859;51.064;4.580;2023-04-15T03:05:23;9.30;99.90
75262;DHT22;63859;51.064;4.580;2023-04-15T03:07:50;9.20;99.90
75262;DHT22;63859;51.064;4.580;2023-04-15T03:10:16;9.20;99.90
75262;DHT22;63859;51.064;4.580;2023-04-15T03:12:42;9.20;99.90
75262;DHT22;63859;51.064;4.580;2023-04-15T03:15:08;9.30;99.90
75262;DHT22;63859;51.064;4.580;2023-04-15T03:17:34;9.30;99.90
75262;DHT22;63859;51.064;4.580;2023-04-15T03:20:05;9.30;99.90
75262;DHT22;63859;51.064;4.580;2023-04-15T03:22:32;9.30;99.90
75262;DHT22;63859;51.064;4.580;2023-04-15T03:24:58;9.20;99.90
75262;DHT22;63859;51.064;4.580;2023-04-15T03:27:24;9.30;99.90
75262;DHT22;63859;51.064;4.580;2023-04-15T03:29:50;9.30;99.90
75262;DHT22;63859;51.064;4.580;2023-04-15T03:32:16;9.30;99.90
75262;DHT22;63859;51.064;4.580;2023-04-15T03:34:42;9.30;99.90
75262;DHT22;63859;51.064;4.580;2023-04-15T03:37:07;9.30;99.90
75262;DHT22;63859;51.064;4.580;2023-04-15T03:39:33;9.10;99.90
75262;DHT22;63859;51.064;4.580;2023-04-15T03:41:59;9.20;99.90
75262;DHT22;63859;51.064;4.580;2023-04-15T03:44:26;9.20;99.90
75262;DHT22;63859;51.064;4.580;2023-04-15T03:46:52;9.20;99.90
75262;DHT22;63859;51.064;4.580;2023-04-15T03:49:18;9.30;99.90
75262;DHT22;63859;51.064;4.580;2023-04-15T03:51:44;9.20;99.90
75262;DHT22;63859;51.064;4.580;2023-04-15T03:54:10;9.20;99.90
75262;DHT22;63859;51.064;4.580;2023-04-15T03:56:37;9.20;99.90
75262;DHT22;63859;51.064;4.580;2023-04-15T03:59:02;9.10;99.90
75262;DHT22;63859;51.064;4.580;2023-04-15T04:01:28;9.10;99.90
75262;DHT22;63859;51.064;4.580;2023-04-15T04:03:54;9.10;99.90
75262;DHT22;63859;51.064;4.580;2023-04-15T04:06:19;9.10;99.90
75262;DHT22;63859;51.064;4.580;2023-04-15T04:08:45;9.10;99.90
75262;DHT22;63859;51.064;4.580;2023-04-15T04:11:10;9.20;99.90
75262;DHT22;63859;51.064;4.580;2023-04-15T04:13:36;9.10;99.90
75262;DHT22;63859;51.064;4.580;2023-04-15T04:16:02;9.10;99.90
75262;DHT22;63859;51.064;4.580;2023-04-15T04:18:30;9.10;99.90
75262;DHT22;63859;51.064;4.580;2023-04-15T04:20:55;9.00;99.90
75262;DHT22;63859;51.064;4.580;2023-04-15T04:23:21;9.00;99.90
75262;DHT22;63859;51.064;4.580;2023-04-15T04:25:47;8.90;99.90
75262;DHT22;63859;51.064;4.580;2023-04-15T04:28:12;9.00;99.90
75262;DHT22;63859;51.064;4.580;2023-04-15T04:30:38;8.90;99.90
75262;DHT22;63859;51.064;4.580;2023-04-15T04:33:04;8.90;99.90
75262;DHT22;63859;51.064;4.580;2023-04-15T04:35:29;8.80;99.90
75262;DHT22;63859;51.064;4.580;2023-04-15T04:37:57;8.80;99.90
75262;DHT22;63859;51.064;4.580;2023-04-15T04:40:23;8.80;99.90
75262;DHT22;63859;51.064;4.580;2023-04-15T04:42:49;8.70;99.90
75262;DHT22;63859;51.064;4.580;2023-04-15T04:45:14;8.80;99.90
75262;DHT22;63859;51.064;4.580;2023-04-15T04:47:40;8.60;99.90
75262;DHT22;63859;51.064;4.580;2023-04-15T04:50:06;8.60;99.90
75262;DHT22;63859;51.064;4.580;2023-04-15T04:52:32;8.60;99.90
75262;DHT22;63859;51.064;4.580;2023-04-15T04:54:57;8.60;99.90
75262;DHT22;63859;51.064;4.580;2023-04-15T04:57:23;8.40;99.90
75262;DHT22;63859;51.064;4.580;2023-04-15T04:59:48;8.60;99.90
75262;DHT22;63859;51.064;4.580;2023-04-15T05:02:14;8.50;99.90
75262;DHT22;63859;51.064;4.580;2023-04-15T05:04:40;8.70;99.90
75262;DHT22;63859;51.064;4.580;2023-04-15T05:07:06;8.60;99.90
75262;DHT22;63859;51.064;4.580;2023-04-15T05:09:31;8.60;99.90
75262;DHT22;63859;51.064;4.580;2023-04-15T05:11:58;8.60;99.90
75262;DHT22;63859;51.064;4.580;2023-04-15T05:14:23;8.60;99.90
75262;DHT22;63859;51.064;4.580;2023-04-15T05:16:49;8.60;99.90
75262;DHT22;63859;51.064;4.580;2023-04-15T05:19:14;8.60;99.90
75262;DHT22;63859;51.064;4.580;2023-04-15T05:21:40;8.60;99.90
75262;DHT22;63859;51.064;4.580;2023-04-15T05:24:06;8.70;99.90
75262;DHT22;63859;51.064;4.580;2023-04-15T05:26:31;8.60;99.90
75262;DHT22;63859;51.064;4.580;2023-04-15T05:28:57;8.60;99.90
75262;DHT22;63859;51.064;4.580;2023-04-15T05:31:22;8.60;99.90
75262;DHT22;63859;51.064;4.580;2023-04-15T05:33:48;8.70;99.90
75262;DHT22;63859;51.064;4.580;2023-04-15T05:36:14;8.70;99.90
75262;DHT22;63859;51.064;4.580;2023-04-15T05:38:40;8.80;99.90
75262;DHT22;63859;51.064;4.580;2023-04-15T05:41:06;9.00;99.90
75262;DHT22;63859;51.064;4.580;2023-04-15T05:43:31;8.90;99.90
75262;DHT22;63859;51.064;4.580;2023-04-15T05:45:57;8.90;99.90
75262;DHT22;63859;51.064;4.580;2023-04-15T05:48:23;8.90;99.90
75262;DHT22;63859;51.064;4.580;2023-04-15T05:50:48;8.90;99.90
75262;DHT22;63859;51.064;4.580;2023-04-15T05:53:14;8.90;99.90
75262;DHT22;63859;51.064;4.580;2023-04-15T05:55:39;8.90;99.90
75262;DHT22;63859;51.064;4.580;2023-04-15T05:58:05;9.00;99.90
75262;DHT22;63859;51.064;4.580;2023-04-15T06:00:31;8.90;99.90
75262;DHT22;63859;51.064;4.580;2023-04-15T06:02:56;9.00;99.90
75262;DHT22;63859;51.064;4.580;2023-04-15T06:05:23;9.00;99.90
75262;DHT22;63859;51.064;4.580;2023-04-15T06:07:49;9.00;99.90
75262;DHT22;63859;51.064;4.580;2023-04-15T06:10:15;9.00;99.90
75262;DHT22;63859;51.064;4.580;2023-04-15T06:12:40;9.00;99.90
75262;DHT22;63859;51.064;4.580;2023-04-15T06:15:06;9.20;99.90
75262;DHT22;63859;51.064;4.580;2023-04-15T06:17:35;9.10;99.90
75262;DHT22;63859;51.064;4.580;2023-04-15T06:20:00;9.10;99.90
75262;DHT22;63859;51.064;4.580;2023-04-15T06:22:26;9.10;99.90
75262;DHT22;63859;51.064;4.580;2023-04-15T06:24:51;9.10;99.90
75262;DHT22;63859;51.064;4.580;2023-04-15T06:27:17;9.20;99.90
75262;DHT22;63859;51.064;4.580;2023-04-15T06:29:43;9.30;99.90
75262;DHT22;63859;51.064;4.580;2023-04-15T06:32:09;9.20;99.90
75262;DHT22;63859;51.064;4.580;2023-04-15T06:34:35;9.20;99.90
75262;DHT22;63859;51.064;4.580;2023-04-15T06:37:01;9.10;99.90
75262;DHT22;63859;51.064;4.580;2023-04-15T06:39:26;9.30;99.90
75262;DHT22;63859;51.064;4.580;2023-04-15T06:41:52;9.40;99.90
75262;DHT22;63859;51.064;4.580;2023-04-15T06:44:18;9.50;99.90
75262;DHT22;63859;51.064;4.580;2023-04-15T06:46:43;9.50;99.90
75262;DHT22;63859;51.064;4.580;2023-04-15T06:49:09;9.30;99.90
75262;DHT22;63859;51.064;4.580;2023-04-15T06:51:35;9.50;99.90
75262;DHT22;63859;51.064;4.580;2023-04-15T06:54:02;9.50;99.90
75262;DHT22;63859;51.064;4.580;2023-04-15T06:56:33;9.60;99.90
75262;DHT22;63859;51.064;4.580;2023-04-15T06:58:58;9.50;99.90
75262;DHT22;63859;51.064;4.580;2023-04-15T07:01:24;9.50;99.90
75262;DHT22;63859;51.064;4.580;2023-04-15T07:03:50;9.50;99.90
75262;DHT22;63859;51.064;4.580;2023-04-15T07:06:16;9.50;99.90
75262;DHT22;63859;51.064;4.580;2023-04-15T07:08:41;9.50;99.90
75262;DHT22;63859;51.064;4.580;2023-04-15T07:11:07;9.60;99.90
75262;DHT22;63859;51.064;4.580;2023-04-15T07:13:33;9.50;99.90
75262;DHT22;63859;51.064;4.580;2023-04-15T07:15:59;9.60;99.90
75262;DHT22;63859;51.064;4.580;2023-04-15T07:18:25;9.60;99.90
75262;DHT22;63859;51.064;4.580;2023-04-15T07:20:50;9.60;99.90
75262;DHT22;63859;51.064;4.580;2023-04-15T07:23:16;9.70;99.90
75262;DHT22;63859;51.064;4.580;2023-04-15T07:25:42;9.80;99.90
75262;DHT22;63859;51.064;4.580;2023-04-15T07:28:08;9.90;99.90
75262;DHT22;63859;51.064;4.580;2023-04-15T07:30:34;10.00;99.90
75262;DHT22;63859;51.064;4.580;2023-04-15T07:33:00;10.20;99.90
75262;DHT22;63859;51.064;4.580;2023-04-15T07:35:26;10.30;99.90
75262;DHT22;63859;51.064;4.580;2023-04-15T07:37:53;10.40;99.90
75262;DHT22;63859;51.064;4.580;2023-04-15T07:40:18;10.50;99.90
75262;DHT22;63859;51.064;4.580;2023-04-15T07:42:45;10.60;99.90
75262;DHT22;63859;51.064;4.580;2023-04-15T07:45:12;10.70;99.90
75262;DHT22;63859;51.064;4.580;2023-04-15T07:47:38;10.80;99.90
75262;DHT22;63859;51.064;4.580;2023-04-15T07:50:05;11.00;99.90
75262;DHT22;63859;51.064;4.580;2023-04-15T07:52:31;11.10;99.90
75262;DHT22;63859;51.064;4.580;2023-04-15T07:55:06;11.20;99.90
75262;DHT22;63859;51.064;4.580;2023-04-15T07:57:36;11.30;99.90
75262;DHT22;63859;51.064;4.580;2023-04-15T08:00:03;11.40;99.90
75262;DHT22;63859;51.064;4.580;2023-04-15T08:02:32;11.50;99.90
75262;DHT22;63859;51.064;4.580;2023-04-15T08:04:58;11.70;99.90
75262;DHT22;63859;51.064;4.580;2023-04-15T08:07:24;11.80;99.90
75262;DHT22;63859;51.064;4.580;2023-04-15T08:09:50;11.80;99.90
75262;DHT22;63859;51.064;4.580;2023-04-15T08:12:15;11.90;99.90
75262;DHT22;63859;51.064;4.580;2023-04-15T08:14:41;12.00;99.90
75262;DHT22;63859;51.064;4.580;2023-04-15T08:17:08;12.10;99.90
75262;DHT22;63859;51.064;4.580;2023-04-15T08:19:34;12.20;99.90
75262;DHT22;63859;51.064;4.580;2023-04-15T08:21:59;12.50;99.90
75262;DHT22;63859;51.064;4.580;2023-04-15T08:24:25;12.40;99.90
75262;DHT22;63859;51.064;4.580;2023-04-15T08:26:51;12.40;99.90
75262;DHT22;63859;51.064;4.580;2023-04-15T08:29:17;12.50;99.90
75262;DHT22;63859;51.064;4.580;2023-04-15T08:31:43;12.50;99.90
75262;DHT22;63859;51.064;4.580;2023-04-15T08:34:13;12.70;99.90
75262;DHT22;63859;51.064;4.580;2023-04-15T08:36:39;12.80;99.90
75262;DHT22;63859;51.064;4.580;2023-04-15T08:39:05;12.90;99.90
75262;DHT22;63859;51.064;4.580;2023-04-15T08:41:45;13.10;99.90
75262;DHT22;63859;51.064;4.580;2023-04-15T08:44:14;13.00;99.90
75262;DHT22;63859;51.064;4.580;2023-04-15T08:46:40;13.30;99.90
75262;DHT22;63859;51.064;4.580;2023-04-15T08:49:10;13.30;99.90
75262;DHT22;63859;51.064;4.580;2023-04-15T08:51:41;13.40;99.90
75262;DHT22;63859;51.064;4.580;2023-04-15T08:54:08;13.50;99.90
75262;DHT22;63859;51.064;4.580;2023-04-15T08:56:34;13.50;99.90
75262;DHT22;63859;51.064;4.580;2023-04-15T08:59:00;13.60;99.90
75262;DHT22;63859;51.064;4.580;2023-04-15T09:01:26;13.70;99.90
75262;DHT22;63859;51.064;4.580;2023-04-15T09:03:53;13.70;99.90
75262;DHT22;63859;51.064;4.580;2023-04-15T09:06:20;13.80;99.90
75262;DHT22;63859;51.064;4.580;2023-04-15T09:08:46;13.80;99.90
75262;DHT22;63859;51.064;4.580;2023-04-15T09:11:12;13.90;99.90
75262;DHT22;63859;51.064;4.580;2023-04-15T09:13:38;13.90;99.90
75262;DHT22;63859;51.064;4.580;2023-04-15T09:16:05;14.00;99.90
75262;DHT22;63859;51.064;4.580;2023-04-15T09:18:35;14.10;99.90
75262;DHT22;63859;51.064;4.580;2023-04-15T09:21:09;14.10;99.90
75262;DHT22;63859;51.064;4.580;2023-04-15T09:23:36;14.10;99.90
75262;DHT22;63859;51.064;4.580;2023-04-15T09:26:03;14.20;99.90
75262;DHT22;63859;51.064;4.580;2023-04-15T09:28:29;14.20;99.90
75262;DHT22;63859;51.064;4.580;2023-04-15T09:30:59;14.20;99.90
75262;DHT22;63859;51.064;4.580;2023-04-15T09:33:26;14.30;99.90
75262;DHT22;63859;51.064;4.580;2023-04-15T09:36:03;14.30;99.90
75262;DHT22;63859;51.064;4.580;2023-04-15T09:38:30;14.40;99.90
75262;DHT22;63859;51.064;4.580;2023-04-15T09:40:56;14.50;99.90
75262;DHT22;63859;51.064;4.580;2023-04-15T09:43:22;14.60;99.90
75262;DHT22;63859;51.064;4.580;2023-04-15T09:46:01;14.70;99.90
75262;DHT22;63859;51.064;4.580;2023-04-15T09:48:26;14.90;99.90
75262;DHT22;63859;51.064;4.580;2023-04-15T09:50:57;14.80;99.90
75262;DHT22;63859;51.064;4.580;2023-04-15T09:53:23;14.90;99.90
75262;DHT22;63859;51.064;4.580;2023-04-15T09:55:50;15.00;99.90
75262;DHT22;63859;51.064;4.580;2023-04-15T09:58:26;15.10;99.90
75262;DHT22;63859;51.064;4.580;2023-04-15T10:00:54;15.20;99.90
75262;DHT22;63859;51.064;4.580;2023-04-15T10:03:23;15.20;99.90
75262;DHT22;63859;51.064;4.580;2023-04-15T10:05:53;15.30;99.90
75262;DHT22;63859;51.064;4.580;2023-04-15T10:08:21;15.30;99.90
75262;DHT22;63859;51.064;4.580;2023-04-15T10:10:48;15.30;99.90
75262;DHT22;63859;51.064;4.580;2023-04-15T10:13:16;15.50;99.90
75262;DHT22;63859;51.064;4.580;2023-04-15T10:15:44;15.60;99.90
75262;DHT22;63859;51.064;4.580;2023-04-15T10:18:15;15.70;99.90
75262;DHT22;63859;51.064;4.580;2023-04-15T10:20:42;16.00;99.90
75262;DHT22;63859;51.064;4.580;2023-04-15T10:23:09;16.10;99.90
75262;DHT22;63859;51.064;4.580;2023-04-15T10:25:36;15.90;99.90
75262;DHT22;63859;51.064;4.580;2023-04-15T10:28:02;16.00;99.90
75262;DHT22;63859;51.064;4.580;2023-04-15T10:30:28;16.00;99.90
75262;DHT22;63859;51.064;4.580;2023-04-15T10:32:54;16.20;99.90
75262;DHT22;63859;51.064;4.580;2023-04-15T10:35:21;16.40;99.90
75262;DHT22;63859;51.064;4.580;2023-04-15T10:37:47;16.50;99.90
75262;DHT22;63859;51.064;4.580;2023-04-15T10:40:32;16.60;99.90
75262;DHT22;63859;51.064;4.580;2023-04-15T10:43:01;16.60;99.90
75262;DHT22;63859;51.064;4.580;2023-04-15T10:45:31;16.70;99.90
75262;DHT22;63859;51.064;4.580;2023-04-15T10:48:00;16.50;99.90
75262;DHT22;63859;51.064;4.580;2023-04-15T10:50:27;16.50;99.90
75262;DHT22;63859;51.064;4.580;2023-04-15T10:52:55;16.60;99.90
75262;DHT22;63859;51.064;4.580;2023-04-15T10:55:23;16.70;99.90
75262;DHT22;63859;51.064;4.580;2023-04-15T10:57:58;16.50;98.20
75262;DHT22;63859;51.064;4.580;2023-04-15T11:00:28;16.40;98.80
75262;DHT22;63859;51.064;4.580;2023-04-15T11:03:09;16.40;99.70
75262;DHT22;63859;51.064;4.580;2023-04-15T11:08:10;17.00;99.40
75262;DHT22;63859;51.064;4.580;2023-04-15T11:13:14;17.10;96.00
75262;DHT22;63859;51.064;4.580;2023-04-15T11:15:46;17.20;97.10
75262;DHT22;63859;51.064;4.580;2023-04-15T11:18:22;17.20;96.20
75262;DHT22;63859;51.064;4.580;2023-04-15T11:21:00;17.20;95.20
75262;DHT22;63859;51.064;4.580;2023-04-15T11:23:42;17.40;94.70
75262;DHT22;63859;51.064;4.580;2023-04-15T11:26:17;17.70;95.20
75262;DHT22;63859;51.064;4.580;2023-04-15T11:28:43;17.80;92.80
75262;DHT22;63859;51.064;4.580;2023-04-15T11:31:16;17.90;91.30
75262;DHT22;63859;51.064;4.580;2023-04-15T11:33:56;17.90;90.90
75262;DHT22;63859;51.064;4.580;2023-04-15T11:36:24;18.00;90.60
75262;DHT22;63859;51.064;4.580;2023-04-15T11:38:51;18.10;90.50
75262;DHT22;63859;51.064;4.580;2023-04-15T11:41:21;18.20;86.20
75262;DHT22;63859;51.064;4.580;2023-04-15T11:43:47;18.10;78.30
75262;DHT22;63859;51.064;4.580;2023-04-15T11:46:13;18.20;84.00
75262;DHT22;63859;51.064;4.580;2023-04-15T11:48:42;18.00;87.90
75262;DHT22;63859;51.064;4.580;2023-04-15T11:51:09;17.80;86.50
75262;DHT22;63859;51.064;4.580;2023-04-15T11:53:38;18.00;88.00
75262;DHT22;63859;51.064;4.580;2023-04-15T11:56:06;18.20;88.00
75262;DHT22;63859;51.064;4.580;2023-04-15T11:58:34;18.20;85.90
75262;DHT22;63859;51.064;4.580;2023-04-15T12:01:04;18.40;84.00
75262;DHT22;63859;51.064;4.580;2023-04-15T12:03:35;18.40;81.00
75262;DHT22;63859;51.064;4.580;2023-04-15T12:06:21;18.60;81.20
75262;DHT22;63859;51.064;4.580;2023-04-15T12:14:38;18.70;75.20
75262;DHT22;63859;51.064;4.580;2023-04-15T12:16:43;18.70;76.20
75262;DHT22;63859;51.064;4.580;2023-04-15T12:19:12;18.70;71.80
75262;DHT22;63859;51.064;4.580;2023-04-15T12:21:40;18.70;71.90
75262;DHT22;63859;51.064;4.580;2023-04-15T12:24:09;18.80;73.10
75262;DHT22;63859;51.064;4.580;2023-04-15T12:26:46;18.70;70.00
75262;DHT22;63859;51.064;4.580;2023-04-15T12:29:14;18.70;73.30
75262;DHT22;63859;51.064;4.580;2023-04-15T12:31:56;18.70;72.20
75262;DHT22;63859;51.064;4.580;2023-04-15T12:36:53;19.00;75.00
75262;DHT22;63859;51.064;4.580;2023-04-15T12:39:23;19.30;75.30
75262;DHT22;63859;51.064;4.580;2023-04-15T12:41:50;19.40;75.20
75262;DHT22;63859;51.064;4.580;2023-04-15T12:44:15;19.60;76.30
75262;DHT22;63859;51.064;4.580;2023-04-15T12:46:41;19.40;74.00
75262;DHT22;63859;51.064;4.580;2023-04-15T12:49:07;19.50;76.30
75262;DHT22;63859;51.064;4.580;2023-04-15T12:51:33;19.50;76.70
75262;DHT22;63859;51.064;4.580;2023-04-15T12:53:59;19.70;76.20
75262;DHT22;63859;51.064;4.580;2023-04-15T12:56:24;19.90;78.10
75262;DHT22;63859;51.064;4.580;2023-04-15T12:58:51;20.10;76.90
75262;DHT22;63859;51.064;4.580;2023-04-15T13:01:17;20.10;73.40
75262;DHT22;63859;51.064;4.580;2023-04-15T13:03:43;20.00;71.90
75262;DHT22;63859;51.064;4.580;2023-04-15T13:06:09;20.10;72.70
75262;DHT22;63859;51.064;4.580;2023-04-15T13:08:34;20.20;75.00
75262;DHT22;63859;51.064;4.580;2023-04-15T13:11:00;20.10;76.50
75262;DHT22;63859;51.064;4.580;2023-04-15T13:13:26;19.60;75.30
75262;DHT22;63859;51.064;4.580;2023-04-15T13:15:52;19.40;76.10
75262;DHT22;63859;51.064;4.580;2023-04-15T13:18:17;19.60;76.70
75262;DHT22;63859;51.064;4.580;2023-04-15T13:20:43;19.70;78.90
75262;DHT22;63859;51.064;4.580;2023-04-15T13:23:09;19.60;76.10
75262;DHT22;63859;51.064;4.580;2023-04-15T13:25:34;19.70;73.60
75262;DHT22;63859;51.064;4.580;2023-04-15T13:28:00;19.90;73.40
75262;DHT22;63859;51.064;4.580;2023-04-15T13:30:26;19.90;73.60
75262;DHT22;63859;51.064;4.580;2023-04-15T13:32:52;19.90;73.80
75262;DHT22;63859;51.064;4.580;2023-04-15T13:35:19;19.80;72.10
75262;DHT22;63859;51.064;4.580;2023-04-15T13:37:46;20.00;72.50
75262;DHT22;63859;51.064;4.580;2023-04-15T13:40:11;20.10;73.40
75262;DHT22;63859;51.064;4.580;2023-04-15T13:42:37;20.20;71.40
75262;DHT22;63859;51.064;4.580;2023-04-15T13:45:03;20.00;73.00
75262;DHT22;63859;51.064;4.580;2023-04-15T13:47:29;20.00;72.30
75262;DHT22;63859;51.064;4.580;2023-04-15T13:49:54;20.20;72.40
75262;DHT22;63859;51.064;4.580;2023-04-15T13:52:21;20.20;70.20
75262;DHT22;63859;51.064;4.580;2023-04-15T13:54:47;20.20;72.90
75262;DHT22;63859;51.064;4.580;2023-04-15T13:57:13;20.20;72.40
75262;DHT22;63859;51.064;4.580;2023-04-15T13:59:38;20.20;70.90
75262;DHT22;63859;51.064;4.580;2023-04-15T14:02:04;20.10;70.20
75262;DHT22;63859;51.064;4.580;2023-04-15T14:04:30;20.00;69.50
75262;DHT22;63859;51.064;4.580;2023-04-15T14:06:56;19.90;70.50
75262;DHT22;63859;51.064;4.580;2023-04-15T14:09:22;19.80;67.50
75262;DHT22;63859;51.064;4.580;2023-04-15T14:11:49;19.90;69.80
75262;DHT22;63859;51.064;4.580;2023-04-15T14:14:15;20.10;71.10
75262;DHT22;63859;51.064;4.580;2023-04-15T14:16:40;20.30;71.30
75262;DHT22;63859;51.064;4.580;2023-04-15T14:19:06;20.70;72.80
75262;DHT22;63859;51.064;4.580;2023-04-15T14:21:32;20.90;72.60
75262;DHT22;63859;51.064;4.580;2023-04-15T14:23:58;21.00;72.10
75262;DHT22;63859;51.064;4.580;2023-04-15T14:26:24;20.90;70.40
75262;DHT22;63859;51.064;4.580;2023-04-15T14:28:50;21.10;71.30
75262;DHT22;63859;51.064;4.580;2023-04-15T14:31:15;21.20;71.70
75262;DHT22;63859;51.064;4.580;2023-04-15T14:33:41;21.00;72.00
75262;DHT22;63859;51.064;4.580;2023-04-15T14:36:08;21.20;71.40
75262;DHT22;63859;51.064;4.580;2023-04-15T14:38:34;21.40;73.00
75262;DHT22;63859;51.064;4.580;2023-04-15T14:41:05;21.60;71.50
75262;DHT22;63859;51.064;4.580;2023-04-15T14:43:31;21.30;71.90
75262;DHT22;63859;51.064;4.580;2023-04-15T14:45:56;21.40;71.80
75262;DHT22;63859;51.064;4.580;2023-04-15T14:48:22;21.50;71.60
75262;DHT22;63859;51.064;4.580;2023-04-15T14:50:48;21.30;71.20
75262;DHT22;63859;51.064;4.580;2023-04-15T14:53:13;21.30;71.30
75262;DHT22;63859;51.064;4.580;2023-04-15T14:55:39;21.70;72.80
75262;DHT22;63859;51.064;4.580;2023-04-15T14:58:06;22.10;71.20
75262;DHT22;63859;51.064;4.580;2023-04-15T15:00:32;22.10;71.60
75262;DHT22;63859;51.064;4.580;2023-04-15T15:02:58;21.80;71.50
75262;DHT22;63859;51.064;4.580;2023-04-15T15:05:24;21.70;72.10
75262;DHT22;63859;51.064;4.580;2023-04-15T15:07:49;21.90;72.70
75262;DHT22;63859;51.064;4.580;2023-04-15T15:10:15;22.00;72.70
75262;DHT22;63859;51.064;4.580;2023-04-15T15:12:41;22.20;73.00
75262;DHT22;63859;51.064;4.580;2023-04-15T15:15:07;21.90;72.70
75262;DHT22;63859;51.064;4.580;2023-04-15T15:17:34;22.00;72.90
75262;DHT22;63859;51.064;4.580;2023-04-15T15:20:00;22.00;74.00
75262;DHT22;63859;51.064;4.580;2023-04-15T15:22:25;22.30;74.30
75262;DHT22;63859;51.064;4.580;2023-04-15T15:24:51;22.70;70.90
75262;DHT22;63859;51.064;4.580;2023-04-15T15:27:18;22.50;72.10
75262;DHT22;63859;51.064;4.580;2023-04-15T15:29:43;22.60;70.90
75262;DHT22;63859;51.064;4.580;2023-04-15T15:32:09;22.50;69.90
75262;DHT22;63859;51.064;4.580;2023-04-15T15:34:35;22.40;70.20
75262;DHT22;63859;51.064;4.580;2023-04-15T15:37:00;22.40;70.40
75262;DHT22;63859;51.064;4.580;2023-04-15T15:39:26;22.30;69.00
75262;DHT22;63859;51.064;4.580;2023-04-15T15:41:52;22.10;66.60
75262;DHT22;63859;51.064;4.580;2023-04-15T15:44:17;22.20;64.40
75262;DHT22;63859;51.064;4.580;2023-04-15T15:46:43;22.40;64.10